Ship Status Report: callsign WDG229

sailwx.info

Track history (hours):
 
Tides and Currents Weather Stations Pressure Air Temp Water Temp Dewpoint Dewpoint Depression Visibility Wind Speed Wind Dir Waves Ship Positions

Callsign WDG229 (name unknown)

Last reported at 2016-Jun-08 10:32 UTC. Time now 2016-Sep-30 22:06 UTC.
Position N 40°40' W 074°03'.
Warning: this ship's position is months out of date.

Date/timePositionNaut miles runAvg speedWind from/ knotsBaromVisibWave heightAir tempDewpointWater temp
2016-Jun-08 10:32N 40°40' W 074°03'0 0.0
2016-Jun-08 09:32N 40°40' W 074°02'0 0.0
2016-Jun-08 08:32N 40°40' W 074°02'0 0.0
2016-Jun-08 07:29N 40°40' W 074°02'0 0.0
2016-Jun-08 06:32N 40°40' W 074°02'0 0.0
2016-Jun-08 05:32N 40°40' W 074°02'0 0.0
2016-Jun-08 04:32N 40°40' W 074°02'0 0.0
2016-Jun-08 03:32N 40°40' W 074°02'0 0.0
2016-Jun-08 02:32N 40°40' W 074°02'0 0.0
2016-Jun-08 01:32N 40°40' W 074°02'0 0.0
2016-Jun-08 00:29N 40°40' W 074°02'0 0.0
2016-Jun-07 23:32N 40°40' W 074°02'0 0.1
2016-Jun-07 22:32N 40°40' W 074°03'0 0.0
2016-Jun-07 21:32N 40°40' W 074°03'0 0.0
2016-Jun-07 20:32N 40°40' W 074°03'0 0.0
2016-Jun-07 19:32N 40°40' W 074°02'0 0.0
2016-Jun-07 18:32N 40°40' W 074°02'0 0.1
2016-Jun-07 17:32N 40°40' W 074°02'0 0.1
2016-Jun-07 16:32N 40°40' W 074°02'4 4.3
2016-Jun-07 15:33N 40°36' W 074°02'6 5.6
2016-Jun-07 14:33N 40°31' W 073°59'41 8.1
2016-Jun-07 09:33N 39°50' W 073°58'9 8.9
2016-Jun-07 08:33N 39°42' W 074°01'9 9.1
2016-Jun-07 07:33N 39°33' W 074°05'9 9.0
2016-Jun-07 06:32N 39°25' W 074°12'19 9.4
2016-Jun-07 04:29N 39°11' W 074°28'9 9.5
2016-Jun-07 03:33N 39°04' W 074°35'9 9.4
2016-Jun-07 02:33N 38°57' W 074°43'11 9.5
2016-Jun-07 01:26N 38°46' W 074°46'122 9.3
2016-Jun-06 12:24N 36°56' W 075°52'8 9.7
2016-Jun-06 11:33N 36°57' W 076°02'15 4.9
2016-Jun-06 08:31N 36°52' W 076°19'5 4.6
2016-Jun-06 07:28N 36°47' W 076°18'10 0.4
2016-Jun-05 04:28N 36°57' W 076°22'0 0.2
2016-Jun-05 03:33N 36°57' W 076°22'0 0.0
2016-Jun-05 01:23N 36°57' W 076°22'0 0.0
2016-Jun-04 11:33N 36°57' W 076°21'12 3.8
2016-Jun-04 08:17N 36°58' W 076°06'3 4.0
2016-Jun-04 07:33N 36°58' W 076°02'3 3.3
2016-Jun-04 06:33N 36°57' W 075°58'4 4.0
2016-Jun-04 05:32N 36°57' W 075°53'85 6.0
2016-Jun-03 15:21N 38°08' W 074°56'5 6.1
2016-Jun-03 14:34N 38°12' W 074°53'8 6.3
2016-Jun-03 13:15N 38°20' W 074°50'4 6.4
2016-Jun-03 12:33N 38°25' W 074°49'19 6.0
2016-Jun-03 09:19N 38°44' W 074°50'5 6.1
2016-Jun-03 08:30N 38°48' W 074°47'6 6.3
2016-Jun-03 07:33N 38°54' W 074°45'14 6.0
2016-Jun-03 05:19N 39°05' W 074°34'5 6.5
2016-Jun-03 04:31N 39°08' W 074°30'8 6.5
2016-Jun-03 03:18N 39°15' W 074°24'5 6.3
2016-Jun-03 02:34N 39°18' W 074°20'7 6.3
2016-Jun-03 01:32N 39°23' W 074°14'6 6.5
2016-Jun-03 00:33N 39°28' W 074°09'6 6.3
2016-Jun-02 23:33N 39°34' W 074°05'6 6.3
2016-Jun-02 22:33N 39°40' W 074°02'6 6.4
2016-Jun-02 21:33N 39°45' W 073°59'6 6.2
2016-Jun-02 20:33N 39°52' W 073°58'6 6.1
2016-Jun-02 19:29N 39°58' W 073°56'31 6.3
2016-Jun-02 14:33N 40°29' W 073°55'10 4.5
2016-Jun-02 12:26N 40°36' W 074°03'11 3.2
2016-Jun-02 09:05N 40°31' W 074°15'1 2.1
2016-Jun-02 08:26N 40°33' W 074°15'1 0.2
2016-Jun-02 03:33N 40°32' W 074°15'8 0.8
2016-Jun-01 17:29N 40°39' W 074°10'2 0.8
2016-Jun-01 15:30N 40°38' W 074°12'2 1.7
2016-Jun-01 14:32N 40°38' W 074°10'0 0.0
2016-Jun-01 13:32N 40°38' W 074°10'0 0.0
2016-Jun-01 12:32N 40°38' W 074°10'0 0.0
2016-Jun-01 11:32N 40°38' W 074°10'6 5.7
2016-Jun-01 10:33N 40°33' W 074°13'3 2.4
2016-Jun-01 09:31N 40°31' W 074°15'0 0.0
2016-Jun-01 06:08N 40°31' W 074°15'3 5.2
2016-Jun-01 05:33N 40°34' W 074°13'7 7.4
2016-Jun-01 04:33N 40°39' W 074°06'10 9.9
2016-Jun-01 03:33N 40°48' W 073°59'1 0.0
2016-May-31 02:27N 40°49' W 073°59'  
Track history (hours):
 
Tides and Currents Weather Stations Pressure Air Temp Water Temp Dewpoint Dewpoint Depression Visibility Wind Speed Wind Dir Waves Ship Positions

Callsign WDG229 (name unknown)

Last reported at 2016-Jun-08 10:32 UTC. Time now 2016-Sep-30 22:06 UTC.
Position N 40°40' W 074°03'.
Warning: this ship's position is months out of date.

Date/timePositionNaut miles runAvg speedWind from/ knotsBaromVisibWave heightAir tempDewpointWater temp
2016-Jun-08 10:32N 40°40' W 074°03'0 0.0
2016-Jun-08 09:32N 40°40' W 074°02'0 0.0
2016-Jun-08 08:32N 40°40' W 074°02'0 0.0
2016-Jun-08 07:29N 40°40' W 074°02'0 0.0
2016-Jun-08 06:32N 40°40' W 074°02'0 0.0
2016-Jun-08 05:32N 40°40' W 074°02'0 0.0
2016-Jun-08 04:32N 40°40' W 074°02'0 0.0
2016-Jun-08 03:32N 40°40' W 074°02'0 0.0
2016-Jun-08 02:32N 40°40' W 074°02'0 0.0
2016-Jun-08 01:32N 40°40' W 074°02'0 0.0
2016-Jun-08 00:29N 40°40' W 074°02'0 0.0
2016-Jun-07 23:32N 40°40' W 074°02'0 0.1
2016-Jun-07 22:32N 40°40' W 074°03'0 0.0
2016-Jun-07 21:32N 40°40' W 074°03'0 0.0
2016-Jun-07 20:32N 40°40' W 074°03'0 0.0
2016-Jun-07 19:32N 40°40' W 074°02'0 0.0
2016-Jun-07 18:32N 40°40' W 074°02'0 0.1
2016-Jun-07 17:32N 40°40' W 074°02'0 0.1
2016-Jun-07 16:32N 40°40' W 074°02'4 4.3
2016-Jun-07 15:33N 40°36' W 074°02'6 5.6
2016-Jun-07 14:33N 40°31' W 073°59'41 8.1
2016-Jun-07 09:33N 39°50' W 073°58'9 8.9
2016-Jun-07 08:33N 39°42' W 074°01'9 9.1
2016-Jun-07 07:33N 39°33' W 074°05'9 9.0
2016-Jun-07 06:32N 39°25' W 074°12'19 9.4
2016-Jun-07 04:29N 39°11' W 074°28'9 9.5
2016-Jun-07 03:33N 39°04' W 074°35'9 9.4
2016-Jun-07 02:33N 38°57' W 074°43'11 9.5
2016-Jun-07 01:26N 38°46' W 074°46'122 9.3
2016-Jun-06 12:24N 36°56' W 075°52'8 9.7
2016-Jun-06 11:33N 36°57' W 076°02'15 4.9
2016-Jun-06 08:31N 36°52' W 076°19'5 4.6
2016-Jun-06 07:28N 36°47' W 076°18'10 0.4
2016-Jun-05 04:28N 36°57' W 076°22'0 0.2
2016-Jun-05 03:33N 36°57' W 076°22'0 0.0
2016-Jun-05 01:23N 36°57' W 076°22'0 0.0
2016-Jun-04 11:33N 36°57' W 076°21'12 3.8
2016-Jun-04 08:17N 36°58' W 076°06'3 4.0
2016-Jun-04 07:33N 36°58' W 076°02'3 3.3
2016-Jun-04 06:33N 36°57' W 075°58'4 4.0
2016-Jun-04 05:32N 36°57' W 075°53'85 6.0
2016-Jun-03 15:21N 38°08' W 074°56'5 6.1
2016-Jun-03 14:34N 38°12' W 074°53'8 6.3
2016-Jun-03 13:15N 38°20' W 074°50'4 6.4
2016-Jun-03 12:33N 38°25' W 074°49'19 6.0
2016-Jun-03 09:19N 38°44' W 074°50'5 6.1
2016-Jun-03 08:30N 38°48' W 074°47'6 6.3
2016-Jun-03 07:33N 38°54' W 074°45'14 6.0
2016-Jun-03 05:19N 39°05' W 074°34'5 6.5
2016-Jun-03 04:31N 39°08' W 074°30'8 6.5
2016-Jun-03 03:18N 39°15' W 074°24'5 6.3
2016-Jun-03 02:34N 39°18' W 074°20'7 6.3
2016-Jun-03 01:32N 39°23' W 074°14'6 6.5
2016-Jun-03 00:33N 39°28' W 074°09'6 6.3
2016-Jun-02 23:33N 39°34' W 074°05'6 6.3
2016-Jun-02 22:33N 39°40' W 074°02'6 6.4
2016-Jun-02 21:33N 39°45' W 073°59'6 6.2
2016-Jun-02 20:33N 39°52' W 073°58'6 6.1
2016-Jun-02 19:29N 39°58' W 073°56'31 6.3
2016-Jun-02 14:33N 40°29' W 073°55'10 4.5
2016-Jun-02 12:26N 40°36' W 074°03'11 3.2
2016-Jun-02 09:05N 40°31' W 074°15'1 2.1
2016-Jun-02 08:26N 40°33' W 074°15'1 0.2
2016-Jun-02 03:33N 40°32' W 074°15'8 0.8
2016-Jun-01 17:29N 40°39' W 074°10'2 0.8
2016-Jun-01 15:30N 40°38' W 074°12'2 1.7
2016-Jun-01 14:32N 40°38' W 074°10'0 0.0
2016-Jun-01 13:32N 40°38' W 074°10'0 0.0
2016-Jun-01 12:32N 40°38' W 074°10'0 0.0
2016-Jun-01 11:32N 40°38' W 074°10'6 5.7
2016-Jun-01 10:33N 40°33' W 074°13'3 2.4
2016-Jun-01 09:31N 40°31' W 074°15'0 0.0
2016-Jun-01 06:08N 40°31' W 074°15'3 5.2
2016-Jun-01 05:33N 40°34' W 074°13'7 7.4
2016-Jun-01 04:33N 40°39' W 074°06'10 9.9
2016-Jun-01 03:33N 40°48' W 073°59'1 0.0
2016-May-31 02:27N 40°49' W 073°59'  

Dump ship's entire track history